createdAt,value
2019-03-21T00:01:50.062Z,3.75
2019-03-21T00:04:23.909Z,3.76
2019-03-21T00:06:57.359Z,3.70
2019-03-21T00:09:31.326Z,3.63
2019-03-21T00:12:10.711Z,3.43
2019-03-21T00:15:22.001Z,3.13
2019-03-21T00:18:05.343Z,2.84
2019-03-21T00:20:39.778Z,2.58
2019-03-21T00:23:13.514Z,2.26
2019-03-21T00:25:47.705Z,2.28
2019-03-21T00:28:21.623Z,2.28
2019-03-21T00:30:55.242Z,2.34
2019-03-21T00:33:28.891Z,2.16
2019-03-21T00:36:02.892Z,2.13
2019-03-21T00:38:36.141Z,1.85
2019-03-21T00:41:11.357Z,1.67
2019-03-21T00:43:45.043Z,1.40
2019-03-21T00:46:19.758Z,1.20
2019-03-21T00:48:53.671Z,1.13
2019-03-21T00:51:27.180Z,1.05
2019-03-21T00:54:01.242Z,1.15
2019-03-21T00:56:34.489Z,1.41
2019-03-21T00:59:10.351Z,1.19
2019-03-21T01:01:45.474Z,1.29
2019-03-21T01:04:18.988Z,1.53
2019-03-21T01:06:52.232Z,1.33
2019-03-21T01:09:26.080Z,1.37
2019-03-21T01:11:59.409Z,1.64
2019-03-21T01:14:32.863Z,1.87
2019-03-21T01:17:06.755Z,2.42
2019-03-21T01:19:41.115Z,2.53
2019-03-21T01:22:15.077Z,2.32
2019-03-21T01:24:48.723Z,2.43
2019-03-21T01:27:22.134Z,2.45
2019-03-21T01:29:55.678Z,2.44
2019-03-21T01:32:29.220Z,2.37
2019-03-21T01:35:03.230Z,2.35
2019-03-21T01:37:36.482Z,2.60
2019-03-21T01:40:14.775Z,2.55
2019-03-21T01:42:48.434Z,2.62
2019-03-21T01:45:24.633Z,2.35
2019-03-21T01:47:58.509Z,2.44
2019-03-21T01:50:33.059Z,2.58
2019-03-21T01:53:06.957Z,2.84
2019-03-21T01:55:40.276Z,2.82
2019-03-21T01:58:15.159Z,2.92
2019-03-21T02:00:49.012Z,3.13
2019-03-21T02:03:22.706Z,3.16
2019-03-21T02:05:56.567Z,3.14
2019-03-21T02:08:30.299Z,3.28
2019-03-21T02:11:04.261Z,3.22
2019-03-21T02:13:37.351Z,3.45
2019-03-21T02:16:11.218Z,3.43
2019-03-21T02:18:44.931Z,3.37
2019-03-21T02:21:18.623Z,3.44
2019-03-21T02:23:52.540Z,3.42
2019-03-21T02:26:26.439Z,3.31
2019-03-21T02:29:00.230Z,3.36
2019-03-21T02:31:34.069Z,3.41
2019-03-21T02:34:08.386Z,3.43
2019-03-21T02:36:42.082Z,3.36
2019-03-21T02:39:15.991Z,3.33
2019-03-21T02:41:51.216Z,3.35
2019-03-21T02:44:25.389Z,3.27
2019-03-21T02:46:59.737Z,3.14
2019-03-21T02:49:33.425Z,3.02
2019-03-21T02:52:06.923Z,2.78
2019-03-21T02:54:40.072Z,3.22
2019-03-21T02:57:13.354Z,3.17
2019-03-21T02:59:47.071Z,3.03
2019-03-21T03:02:21.155Z,2.97
2019-03-21T03:04:55.036Z,2.79
2019-03-21T03:07:29.036Z,2.89
2019-03-21T03:10:03.790Z,2.68
2019-03-21T03:12:37.597Z,2.76
2019-03-21T03:15:22.791Z,2.79
2019-03-21T03:17:50.046Z,2.59
2019-03-21T03:20:24.218Z,2.71
2019-03-21T03:22:58.735Z,2.64
2019-03-21T03:25:33.098Z,2.65
2019-03-21T03:28:17.667Z,2.70
2019-03-21T03:30:51.570Z,2.54
2019-03-21T03:33:25.046Z,2.28
2019-03-21T03:35:58.941Z,2.12
2019-03-21T03:38:33.313Z,2.11
2019-03-21T03:41:07.615Z,1.97
2019-03-21T03:43:40.614Z,2.64
2019-03-21T03:46:14.803Z,2.81
2019-03-21T03:48:48.621Z,2.43
2019-03-21T03:51:22.117Z,2.28
2019-03-21T03:53:55.690Z,2.17
2019-03-21T03:56:29.730Z,2.04
2019-03-21T03:59:04.073Z,1.83
2019-03-21T04:01:38.546Z,1.89
2019-03-21T04:04:12.512Z,2.11
2019-03-21T04:06:46.961Z,2.34
2019-03-21T04:09:20.492Z,2.34
2019-03-21T04:11:55.473Z,2.22
2019-03-21T04:14:29.439Z,2.31
2019-03-21T04:17:03.425Z,2.78
2019-03-21T04:19:36.859Z,2.43
2019-03-21T04:22:11.888Z,2.31
2019-03-21T04:24:45.415Z,2.37
2019-03-21T04:27:18.710Z,2.30
2019-03-21T04:29:52.277Z,2.17
2019-03-21T04:32:25.774Z,2.27
2019-03-21T04:34:59.696Z,2.23
2019-03-21T04:37:34.574Z,2.24
2019-03-21T04:40:09.536Z,2.40
2019-03-21T04:42:43.629Z,2.29
2019-03-21T04:45:21.563Z,2.10
2019-03-21T04:47:55.485Z,2.19
2019-03-21T04:50:29.443Z,1.93
2019-03-21T04:53:02.867Z,1.86
2019-03-21T04:55:36.586Z,1.93
2019-03-21T04:58:11.658Z,1.90
2019-03-21T05:00:45.417Z,1.84
2019-03-21T05:03:19.104Z,1.77
2019-03-21T05:05:52.911Z,1.93
2019-03-21T05:08:26.798Z,2.18
2019-03-21T05:11:01.047Z,2.12
2019-03-21T05:13:35.171Z,2.15
2019-03-21T05:16:14.632Z,1.87
2019-03-21T05:18:45.310Z,2.04
2019-03-21T05:21:20.085Z,1.81
2019-03-21T05:23:54.236Z,1.64
2019-03-21T05:26:28.225Z,1.42
2019-03-21T05:29:02.024Z,1.36
2019-03-21T05:31:36.035Z,1.15
2019-03-21T05:34:09.686Z,1.07
2019-03-21T05:36:43.378Z,1.01
2019-03-21T05:39:16.999Z,0.55
2019-03-21T05:41:50.679Z,0.45
2019-03-21T05:44:36.393Z,0.54
2019-03-21T05:47:10.184Z,0.45
2019-03-21T05:49:43.929Z,0.58
2019-03-21T05:52:17.754Z,0.59
2019-03-21T05:54:51.507Z,0.48
2019-03-21T05:57:25.222Z,0.46
2019-03-21T05:59:58.967Z,0.47
2019-03-21T06:02:32.725Z,0.43
2019-03-21T06:05:07.047Z,0.34
2019-03-21T06:08:15.861Z,0.20
2019-03-21T06:10:50.972Z,0.14
2019-03-21T06:13:24.993Z,-0.01
2019-03-21T06:16:07.164Z,-0.22
2019-03-21T06:19:22.236Z,-0.37
2019-03-21T06:22:50.870Z,-0.47
2019-03-21T06:26:25.418Z,-0.56
2019-03-21T06:29:00.124Z,-0.39
2019-03-21T06:31:34.135Z,-0.05
2019-03-21T06:34:08.386Z,0.23
2019-03-21T06:36:42.238Z,0.48
2019-03-21T06:39:17.376Z,0.38
2019-03-21T06:41:51.608Z,0.53
2019-03-21T06:44:25.495Z,0.86
2019-03-21T06:46:58.877Z,1.13
2019-03-21T06:49:32.676Z,1.33
2019-03-21T06:52:06.354Z,1.79
2019-03-21T06:54:40.137Z,1.89
2019-03-21T06:57:14.545Z,2.09
2019-03-21T06:59:48.375Z,2.22
2019-03-21T07:02:22.558Z,2.37
2019-03-21T07:04:56.431Z,2.79
2019-03-21T07:07:30.126Z,3.08
2019-03-21T07:10:03.780Z,3.11
2019-03-21T07:12:37.599Z,3.44
2019-03-21T07:15:13.063Z,3.77
2019-03-21T07:17:46.816Z,3.81
2019-03-21T07:20:22.061Z,3.83
2019-03-21T07:22:55.932Z,4.30
2019-03-21T07:25:29.595Z,4.55
2019-03-21T07:28:03.261Z,4.89
2019-03-21T07:30:37.066Z,4.80
2019-03-21T07:33:10.807Z,5.10
2019-03-21T07:35:44.792Z,5.48
2019-03-21T07:38:18.612Z,5.73
2019-03-21T07:40:52.371Z,6.00
2019-03-21T07:43:26.071Z,5.93
2019-03-21T07:45:59.808Z,6.17
2019-03-21T07:48:33.432Z,6.26
2019-03-21T07:51:07.239Z,6.55
2019-03-21T07:53:41.057Z,6.86
2019-03-21T07:56:14.809Z,6.96
2019-03-21T07:58:48.617Z,7.29
2019-03-21T08:01:22.371Z,7.23
2019-03-21T08:03:56.135Z,7.18
2019-03-21T08:06:29.493Z,7.47
2019-03-21T08:09:03.438Z,7.94
2019-03-21T08:11:37.223Z,8.97
2019-03-21T08:14:11.086Z,10.32
2019-03-21T08:16:44.946Z,11.79
2019-03-21T08:19:18.727Z,11.96
2019-03-21T08:21:52.646Z,11.75
2019-03-21T08:24:26.506Z,11.63
2019-03-21T08:27:00.067Z,11.48
2019-03-21T08:29:35.217Z,12.65
2019-03-21T08:32:09.025Z,12.77
2019-03-21T08:34:42.784Z,12.51
2019-03-21T08:37:20.789Z,12.76
2019-03-21T08:39:53.780Z,12.09
2019-03-21T08:42:27.507Z,10.54
2019-03-21T08:45:01.249Z,10.16
2019-03-21T08:47:36.970Z,11.05
2019-03-21T08:50:11.175Z,11.70
2019-03-21T08:52:44.971Z,12.61
2019-03-21T08:55:18.747Z,11.63
2019-03-21T08:57:52.637Z,11.51
2019-03-21T09:00:34.066Z,11.44
2019-03-21T09:03:02.121Z,12.85
2019-03-21T09:05:35.980Z,12.36
2019-03-21T09:08:09.999Z,10.74
2019-03-21T09:10:44.089Z,11.43
2019-03-21T09:13:18.109Z,11.60
2019-03-21T09:15:52.092Z,11.90
2019-03-21T09:18:25.965Z,11.73
2019-03-21T09:21:20.202Z,11.52
2019-03-21T09:23:54.534Z,11.56
2019-03-21T09:26:28.565Z,11.97
2019-03-21T09:29:05.353Z,11.69
2019-03-21T09:31:38.553Z,12.38
2019-03-21T09:34:13.778Z,11.73
2019-03-21T09:36:47.726Z,11.91
2019-03-21T09:39:21.467Z,12.47
2019-03-21T09:41:55.213Z,13.14
2019-03-21T09:44:30.244Z,13.79
2019-03-21T09:47:04.037Z,13.97
2019-03-21T09:49:37.814Z,14.50
2019-03-21T09:52:11.894Z,14.33
2019-03-21T09:54:45.755Z,14.57
2019-03-21T09:57:19.608Z,14.04
2019-03-21T09:59:53.513Z,14.89
2019-03-21T10:02:27.184Z,14.68
2019-03-21T10:05:00.998Z,14.55
2019-03-21T10:07:34.917Z,14.46
2019-03-21T10:10:08.950Z,14.53
2019-03-21T10:12:42.797Z,14.75
2019-03-21T10:15:16.726Z,14.52
2019-03-21T10:17:51.452Z,14.61
2019-03-21T10:20:25.440Z,15.00
2019-03-21T10:22:59.266Z,15.04
2019-03-21T10:25:33.173Z,15.25
2019-03-21T10:28:07.065Z,15.30
2019-03-21T10:30:44.885Z,15.22
2019-03-21T10:33:18.846Z,15.80
2019-03-21T10:35:52.677Z,15.50
2019-03-21T10:38:26.480Z,15.53
2019-03-21T10:41:00.448Z,15.51
2019-03-21T10:43:34.235Z,15.69
2019-03-21T10:46:08.045Z,15.76
2019-03-21T10:48:41.847Z,16.02
2019-03-21T10:51:15.599Z,15.44
2019-03-21T10:53:49.436Z,14.34
2019-03-21T10:56:23.272Z,14.39
2019-03-21T10:58:57.049Z,14.98
2019-03-21T11:01:30.829Z,14.98
2019-03-21T11:04:04.629Z,13.20
2019-03-21T11:06:38.396Z,13.76
2019-03-21T11:09:12.798Z,12.83
2019-03-21T11:11:46.584Z,13.57
2019-03-21T11:14:20.310Z,13.59
2019-03-21T11:16:54.053Z,13.74
2019-03-21T11:19:27.934Z,14.18
2019-03-21T11:22:06.372Z,14.10
2019-03-21T11:24:37.369Z,14.54
2019-03-21T11:27:11.292Z,15.22
2019-03-21T11:29:44.964Z,15.12
2019-03-21T11:32:18.791Z,14.21
2019-03-21T11:34:52.601Z,14.09
2019-03-21T11:37:26.402Z,13.74
2019-03-21T11:40:00.380Z,13.52
2019-03-21T11:42:34.181Z,14.19
2019-03-21T11:45:08.787Z,14.44
2019-03-21T11:47:42.485Z,14.66
2019-03-21T11:50:16.503Z,15.55
2019-03-21T11:52:50.185Z,14.92
2019-03-21T11:55:24.026Z,14.66
2019-03-21T11:57:57.749Z,13.83
2019-03-21T12:00:43.078Z,14.25
2019-03-21T12:03:06.906Z,14.79
2019-03-21T12:05:40.784Z,14.21
2019-03-21T12:08:14.631Z,13.64
2019-03-21T12:10:48.351Z,14.50
2019-03-21T12:13:22.415Z,14.20
2019-03-21T12:15:56.075Z,14.31
2019-03-21T12:18:29.794Z,14.81
2019-03-21T12:21:03.543Z,15.30
2019-03-21T12:23:37.180Z,15.44
2019-03-21T12:26:11.051Z,16.54
2019-03-21T12:28:44.825Z,16.80
2019-03-21T12:31:18.538Z,16.43
2019-03-21T12:33:52.214Z,16.48
2019-03-21T12:36:26.046Z,15.96
2019-03-21T12:38:58.985Z,16.07
2019-03-21T12:41:33.953Z,16.37
2019-03-21T12:44:07.798Z,16.03
2019-03-21T12:46:41.002Z,16.34
2019-03-21T12:49:14.714Z,15.67
2019-03-21T12:51:48.425Z,16.00
2019-03-21T12:54:22.131Z,16.42
2019-03-21T12:56:55.881Z,16.42
2019-03-21T12:59:29.620Z,15.97
2019-03-21T13:02:03.281Z,15.56
2019-03-21T13:04:36.983Z,16.16
2019-03-21T13:07:10.677Z,17.25
2019-03-21T13:09:44.425Z,16.95
2019-03-21T13:12:18.246Z,16.66
2019-03-21T13:14:52.006Z,16.88
2019-03-21T13:17:25.685Z,17.69
2019-03-21T13:19:59.405Z,16.83
2019-03-21T13:22:33.126Z,16.44
2019-03-21T13:25:07.232Z,15.79
2019-03-21T13:27:41.081Z,16.17
2019-03-21T13:30:15.395Z,16.36
2019-03-21T13:32:49.172Z,15.75
2019-03-21T13:35:31.926Z,15.54
2019-03-21T13:37:58.402Z,16.73
2019-03-21T13:40:32.140Z,16.92
2019-03-21T13:43:06.217Z,16.70
2019-03-21T13:45:39.905Z,16.11
2019-03-21T13:48:13.650Z,15.66
2019-03-21T13:50:47.397Z,16.64
2019-03-21T13:53:21.239Z,16.40
2019-03-21T13:55:55.063Z,16.20
2019-03-21T13:58:28.815Z,16.26
2019-03-21T14:01:02.520Z,16.00
2019-03-21T14:03:36.367Z,16.23
2019-03-21T14:06:10.164Z,16.58
2019-03-21T14:08:43.877Z,16.42
2019-03-21T14:11:19.342Z,16.22
2019-03-21T14:13:53.210Z,15.84
2019-03-21T14:16:26.994Z,16.42
2019-03-21T14:19:00.737Z,15.89
2019-03-21T14:21:34.477Z,16.08
2019-03-21T14:24:08.232Z,16.82
2019-03-21T14:26:41.902Z,16.83
2019-03-21T14:29:15.668Z,17.70
2019-03-21T14:31:49.378Z,16.56
2019-03-21T14:34:23.119Z,16.42
2019-03-21T14:36:56.864Z,15.72
2019-03-21T14:39:30.607Z,15.90
2019-03-21T14:42:04.515Z,16.13
2019-03-21T14:44:38.285Z,15.67
2019-03-21T14:47:12.276Z,16.09
2019-03-21T14:49:46.052Z,16.34
2019-03-21T14:52:19.842Z,15.67
2019-03-21T14:54:53.567Z,15.69
2019-03-21T14:57:27.236Z,15.96
2019-03-21T15:00:03.906Z,14.69
2019-03-21T15:02:37.190Z,14.67
2019-03-21T15:05:11.787Z,14.86
2019-03-21T15:07:45.469Z,15.25
2019-03-21T15:10:19.641Z,15.33
2019-03-21T15:12:53.428Z,14.58
2019-03-21T15:15:32.087Z,14.95
2019-03-21T15:18:04.812Z,14.93
2019-03-21T15:20:38.613Z,14.52
2019-03-21T15:23:12.421Z,14.76
2019-03-21T15:25:46.239Z,14.87
2019-03-21T15:28:20.176Z,14.85
2019-03-21T15:30:53.902Z,14.41
2019-03-21T15:33:27.658Z,14.54
2019-03-21T15:36:01.419Z,14.38
2019-03-21T15:38:35.124Z,14.34
2019-03-21T15:41:08.771Z,14.05
2019-03-21T15:43:42.522Z,13.59
2019-03-21T15:46:16.184Z,13.69
2019-03-21T15:48:49.948Z,13.58
2019-03-21T15:51:25.477Z,13.25
2019-03-21T15:53:59.269Z,12.93
2019-03-21T15:56:33.069Z,13.07
2019-03-21T15:59:06.926Z,13.07
2019-03-21T16:01:40.635Z,13.20
2019-03-21T16:04:14.637Z,13.04
2019-03-21T16:06:48.483Z,13.09
2019-03-21T16:09:22.318Z,12.57
2019-03-21T16:11:56.000Z,12.50
2019-03-21T16:14:29.910Z,12.79
2019-03-21T16:17:03.558Z,12.93
2019-03-21T16:19:37.229Z,12.55
2019-03-21T16:22:11.278Z,12.38
2019-03-21T16:24:45.147Z,12.39
2019-03-21T16:27:18.935Z,12.42
2019-03-21T16:29:52.676Z,12.34
2019-03-21T16:32:26.370Z,12.20
2019-03-21T16:35:00.092Z,12.33
2019-03-21T16:37:33.761Z,12.30
2019-03-21T16:40:08.861Z,12.20
2019-03-21T16:42:42.682Z,12.17
2019-03-21T16:45:16.780Z,12.14
2019-03-21T16:47:50.083Z,12.20
2019-03-21T16:50:23.931Z,12.16
2019-03-21T16:52:57.733Z,11.98
2019-03-21T16:55:31.464Z,12.05
2019-03-21T16:58:05.193Z,11.80
2019-03-21T17:00:38.172Z,11.77
2019-03-21T17:03:12.042Z,11.60
2019-03-21T17:05:45.765Z,11.44
2019-03-21T17:08:19.501Z,11.23
2019-03-21T17:10:53.147Z,11.13
2019-03-21T17:13:26.853Z,11.10
2019-03-21T17:16:00.512Z,11.14
2019-03-21T17:18:34.265Z,10.87
2019-03-21T17:21:09.550Z,10.94
2019-03-21T17:23:43.418Z,10.66
2019-03-21T17:26:17.275Z,10.60
2019-03-21T17:28:51.018Z,10.26
2019-03-21T17:31:24.607Z,9.93
2019-03-21T17:33:58.265Z,9.81
2019-03-21T17:36:32.281Z,9.44
2019-03-21T17:39:08.583Z,9.01
2019-03-21T17:41:43.399Z,8.88
2019-03-21T17:44:17.287Z,8.60
2019-03-21T17:46:50.965Z,8.26
2019-03-21T17:49:24.704Z,8.01
2019-03-21T17:51:58.475Z,7.91
2019-03-21T17:54:41.081Z,7.68
2019-03-21T17:57:07.660Z,7.52
2019-03-21T17:59:41.402Z,7.44
2019-03-21T18:02:15.075Z,7.20
2019-03-21T18:04:48.895Z,7.07
2019-03-21T18:07:22.476Z,6.55
2019-03-21T18:09:56.531Z,6.25
2019-03-21T18:12:30.219Z,6.08
2019-03-21T18:15:04.051Z,6.04
2019-03-21T18:17:37.219Z,5.90
2019-03-21T18:20:11.813Z,5.79
2019-03-21T18:22:45.881Z,5.43
2019-03-21T18:25:19.667Z,5.54
2019-03-21T18:27:53.373Z,5.56
2019-03-21T18:30:27.147Z,5.44
2019-03-21T18:33:00.861Z,5.39
2019-03-21T18:35:34.612Z,4.98
2019-03-21T18:38:08.372Z,4.81
2019-03-21T18:40:42.146Z,4.62
2019-03-21T18:43:15.926Z,4.33
2019-03-21T18:45:49.672Z,4.24
2019-03-21T18:48:23.425Z,4.10
2019-03-21T18:50:57.046Z,4.03
2019-03-21T18:53:30.719Z,3.96
2019-03-21T18:56:04.486Z,3.89
2019-03-21T18:58:38.186Z,3.96
2019-03-21T19:01:11.944Z,3.84
2019-03-21T19:03:45.711Z,3.95
2019-03-21T19:06:19.471Z,3.87
2019-03-21T19:08:53.069Z,3.70
2019-03-21T19:11:26.746Z,3.79
2019-03-21T19:14:00.426Z,3.77
2019-03-21T19:16:34.037Z,3.64
2019-03-21T19:19:07.791Z,3.40
2019-03-21T19:21:41.428Z,3.23
2019-03-21T19:24:15.129Z,3.16
2019-03-21T19:26:48.760Z,3.04
2019-03-21T19:29:22.416Z,2.98
2019-03-21T19:31:55.989Z,2.94
2019-03-21T19:34:29.633Z,2.96
2019-03-21T19:37:03.286Z,3.16
2019-03-21T19:39:36.940Z,3.25
2019-03-21T19:42:09.865Z,2.87
2019-03-21T19:44:43.582Z,2.80
2019-03-21T19:47:23.885Z,2.73
2019-03-21T19:49:52.632Z,2.68
2019-03-21T19:52:25.356Z,2.59
2019-03-21T19:54:58.941Z,2.58
2019-03-21T19:57:32.504Z,2.44
2019-03-21T20:00:08.802Z,2.37
2019-03-21T20:02:42.559Z,2.35
2019-03-21T20:05:16.948Z,2.22
2019-03-21T20:07:50.510Z,2.21
